sensor_id;sensor_type;location;lat;lon;timestamp;pressure;altitude;pressure_sealevel;temperature;humidity
3780;BME280;1905;52.482;9.802;2022-11-22T00:00:44;99326.34;;;0.65;85.18
3780;BME280;1905;52.482;9.802;2022-11-22T00:03:12;99320.16;;;0.69;84.21
3780;BME280;1905;52.482;9.802;2022-11-22T00:05:39;99303.75;;;0.67;84.25
3780;BME280;1905;52.482;9.802;2022-11-22T00:08:07;99305.47;;;0.68;84.18
3780;BME280;1905;52.482;9.802;2022-11-22T00:10:36;99306.28;;;0.70;84.22
3780;BME280;1905;52.482;9.802;2022-11-22T00:13:04;99312.34;;;0.70;84.33
3780;BME280;1905;52.482;9.802;2022-11-22T00:15:31;99307.09;;;0.72;84.22
3780;BME280;1905;52.482;9.802;2022-11-22T00:17:59;99305.34;;;0.72;84.29
3780;BME280;1905;52.482;9.802;2022-11-22T00:20:27;99303.53;;;0.76;85.34
3780;BME280;1905;52.482;9.802;2022-11-22T00:22:55;99303.47;;;0.77;84.60
3780;BME280;1905;52.482;9.802;2022-11-22T00:25:23;99299.16;;;0.78;84.18
3780;BME280;1905;52.482;9.802;2022-11-22T00:27:53;99288.75;;;0.78;84.07
3780;BME280;1905;52.482;9.802;2022-11-22T00:30:20;99285.16;;;0.82;85.24
3780;BME280;1905;52.482;9.802;2022-11-22T00:32:48;99277.34;;;0.83;85.49
3780;BME280;1905;52.482;9.802;2022-11-22T00:35:15;99268.81;;;0.78;85.22
3780;BME280;1905;52.482;9.802;2022-11-22T00:37:43;99292.06;;;0.83;85.54
3780;BME280;1905;52.482;9.802;2022-11-22T00:40:11;99276.47;;;0.84;85.33
3780;BME280;1905;52.482;9.802;2022-11-22T00:42:39;99273.88;;;0.84;85.92
3780;BME280;1905;52.482;9.802;2022-11-22T00:45:09;99273.88;;;0.83;86.20
3780;BME280;1905;52.482;9.802;2022-11-22T00:47:36;99275.53;;;0.87;85.51
3780;BME280;1905;52.482;9.802;2022-11-22T00:50:04;99278.13;;;0.87;86.12
3780;BME280;1905;52.482;9.802;2022-11-22T00:52:32;99273.72;;;0.89;85.27
3780;BME280;1905;52.482;9.802;2022-11-22T00:55:00;99258.09;;;0.90;85.21
3780;BME280;1905;52.482;9.802;2022-11-22T00:57:27;99263.19;;;0.93;85.62
3780;BME280;1905;52.482;9.802;2022-11-22T00:59:55;99255.38;;;0.95;85.50
3780;BME280;1905;52.482;9.802;2022-11-22T01:02:24;99267.44;;;0.96;85.96
3780;BME280;1905;52.482;9.802;2022-11-22T01:04:51;99256.97;;;0.99;87.29
3780;BME280;1905;52.482;9.802;2022-11-22T01:07:19;99248.28;;;1.00;86.46
3780;BME280;1905;52.482;9.802;2022-11-22T01:09:46;99243.09;;;1.00;86.32
3780;BME280;1905;52.482;9.802;2022-11-22T01:12:14;99241.34;;;1.00;85.75
3780;BME280;1905;52.482;9.802;2022-11-22T01:14:42;99232.63;;;1.03;87.13
3780;BME280;1905;52.482;9.802;2022-11-22T01:17:09;99229.97;;;1.04;87.11
3780;BME280;1905;52.482;9.802;2022-11-22T01:19:38;99227.44;;;1.03;86.60
3780;BME280;1905;52.482;9.802;2022-11-22T01:22:06;99234.31;;;1.04;86.35
3780;BME280;1905;52.482;9.802;2022-11-22T01:24:33;99217.75;;;1.08;87.12
3780;BME280;1905;52.482;9.802;2022-11-22T01:27:01;99215.16;;;1.06;87.46
3780;BME280;1905;52.482;9.802;2022-11-22T01:29:29;99210.69;;;1.11;87.09
3780;BME280;1905;52.482;9.802;2022-11-22T01:31:57;99215.06;;;1.11;86.16
3780;BME280;1905;52.482;9.802;2022-11-22T01:34:24;99215.88;;;1.11;86.97
3780;BME280;1905;52.482;9.802;2022-11-22T01:36:53;99219.31;;;1.13;87.23
3780;BME280;1905;52.482;9.802;2022-11-22T01:39:21;99218.19;;;1.22;87.21
3780;BME280;1905;52.482;9.802;2022-11-22T01:41:48;99215.72;;;1.17;86.91
3780;BME280;1905;52.482;9.802;2022-11-22T01:44:18;99209.66;;;1.17;87.05
3780;BME280;1905;52.482;9.802;2022-11-22T01:46:48;99211.38;;;1.18;85.82
3780;BME280;1905;52.482;9.802;2022-11-22T01:49:24;99206.09;;;1.21;87.64
3780;BME280;1905;52.482;9.802;2022-11-22T01:51:58;99200.88;;;1.21;87.18
3780;BME280;1905;52.482;9.802;2022-11-22T01:54:29;99198.19;;;1.24;87.10
3780;BME280;1905;52.482;9.802;2022-11-22T01:57:02;99209.47;;;1.23;86.59
3780;BME280;1905;52.482;9.802;2022-11-22T01:59:33;99197.28;;;1.25;86.74
3780;BME280;1905;52.482;9.802;2022-11-22T02:02:02;99191.19;;;1.26;87.87
3780;BME280;1905;52.482;9.802;2022-11-22T02:04:31;99199.78;;;1.28;87.68
3780;BME280;1905;52.482;9.802;2022-11-22T02:07:07;99200.72;;;1.27;88.14
3780;BME280;1905;52.482;9.802;2022-11-22T02:09:38;99199.75;;;1.30;87.13
3780;BME280;1905;52.482;9.802;2022-11-22T02:12:07;99202.13;;;1.37;87.08
3780;BME280;1905;52.482;9.802;2022-11-22T02:14:36;99190.94;;;1.34;86.56
3780;BME280;1905;52.482;9.802;2022-11-22T02:17:05;99183.22;;;1.32;87.30
3780;BME280;1905;52.482;9.802;2022-11-22T02:19:38;99188.31;;;1.35;87.08
3780;BME280;1905;52.482;9.802;2022-11-22T02:22:18;99183.91;;;1.37;87.38
3780;BME280;1905;52.482;9.802;2022-11-22T02:24:52;99185.56;;;1.40;85.87
3780;BME280;1905;52.482;9.802;2022-11-22T02:27:23;99179.41;;;1.42;86.33
3780;BME280;1905;52.482;9.802;2022-11-22T02:29:51;99180.28;;;1.43;86.24
3780;BME280;1905;52.482;9.802;2022-11-22T02:32:18;99176.78;;;1.44;85.64
3780;BME280;1905;52.482;9.802;2022-11-22T02:34:48;99170.63;;;1.46;86.37
3780;BME280;1905;52.482;9.802;2022-11-22T02:37:20;99173.34;;;1.43;86.97
3780;BME280;1905;52.482;9.802;2022-11-22T02:39:51;99182.72;;;1.47;86.99
3780;BME280;1905;52.482;9.802;2022-11-22T02:42:19;99191.44;;;1.46;87.13
3780;BME280;1905;52.482;9.802;2022-11-22T02:44:48;99188.84;;;1.46;87.65
3780;BME280;1905;52.482;9.802;2022-11-22T02:47:15;99183.59;;;1.48;87.79
3780;BME280;1905;52.482;9.802;2022-11-22T02:49:43;99195.69;;;1.49;87.62
3780;BME280;1905;52.482;9.802;2022-11-22T02:52:14;99183.56;;;1.49;87.20
3780;BME280;1905;52.482;9.802;2022-11-22T02:54:43;99181.78;;;1.50;87.78
3780;BME280;1905;52.482;9.802;2022-11-22T02:57:10;99163.53;;;1.51;87.22
3780;BME280;1905;52.482;9.802;2022-11-22T02:59:38;99153.91;;;1.55;87.62
3780;BME280;1905;52.482;9.802;2022-11-22T03:02:07;99149.53;;;1.55;87.94
3780;BME280;1905;52.482;9.802;2022-11-22T03:04:35;99147.84;;;1.54;87.34
3780;BME280;1905;52.482;9.802;2022-11-22T03:07:02;99148.63;;;1.56;87.14
3780;BME280;1905;52.482;9.802;2022-11-22T03:09:30;99161.63;;;1.56;87.65
3780;BME280;1905;52.482;9.802;2022-11-22T03:11:59;99142.53;;;1.57;87.46
3780;BME280;1905;52.482;9.802;2022-11-22T03:14:26;99159.94;;;1.55;87.11
3780;BME280;1905;52.482;9.802;2022-11-22T03:16:54;99142.53;;;1.57;88.19
3780;BME280;1905;52.482;9.802;2022-11-22T03:19:23;99149.50;;;1.57;87.49
3780;BME280;1905;52.482;9.802;2022-11-22T03:21:51;99152.00;;;1.60;87.47
3780;BME280;1905;52.482;9.802;2022-11-22T03:24:18;99159.63;;;1.64;88.33
3780;BME280;1905;52.482;9.802;2022-11-22T03:26:47;99164.94;;;1.61;87.78
3780;BME280;1905;52.482;9.802;2022-11-22T03:29:15;99154.44;;;1.64;87.84
3780;BME280;1905;52.482;9.802;2022-11-22T03:31:43;99149.25;;;1.64;87.95
3780;BME280;1905;52.482;9.802;2022-11-22T03:34:11;99151.03;;;1.62;88.35
3780;BME280;1905;52.482;9.802;2022-11-22T03:36:40;99156.97;;;1.66;87.65
3780;BME280;1905;52.482;9.802;2022-11-22T03:39:08;99154.34;;;1.67;88.05
3780;BME280;1905;52.482;9.802;2022-11-22T03:41:36;99152.63;;;1.66;87.86
3780;BME280;1905;52.482;9.802;2022-11-22T03:44:03;99162.94;;;1.69;88.31
3780;BME280;1905;52.482;9.802;2022-11-22T03:46:31;99162.09;;;1.69;87.96
3780;BME280;1905;52.482;9.802;2022-11-22T03:48:59;99155.09;;;1.71;88.12
3780;BME280;1905;52.482;9.802;2022-11-22T03:51:26;99156.88;;;1.69;87.41
3780;BME280;1905;52.482;9.802;2022-11-22T03:53:56;99159.44;;;1.70;87.67
3780;BME280;1905;52.482;9.802;2022-11-22T03:56:23;99156.84;;;1.70;87.25
3780;BME280;1905;52.482;9.802;2022-11-22T03:58:51;99146.47;;;1.69;87.19
3780;BME280;1905;52.482;9.802;2022-11-22T04:01:19;99140.28;;;1.73;86.62
3780;BME280;1905;52.482;9.802;2022-11-22T04:03:47;99136.63;;;1.78;88.97
3780;BME280;1905;52.482;9.802;2022-11-22T04:06:15;99133.34;;;1.73;87.04
3780;BME280;1905;52.482;9.802;2022-11-22T04:08:42;99132.50;;;1.71;87.63
3780;BME280;1905;52.482;9.802;2022-11-22T04:11:11;99130.50;;;1.79;87.64
3780;BME280;1905;52.482;9.802;2022-11-22T04:13:39;99137.50;;;1.79;87.59
3780;BME280;1905;52.482;9.802;2022-11-22T04:16:24;99145.22;;;1.80;87.21
3780;BME280;1905;52.482;9.802;2022-11-22T04:18:52;99144.44;;;1.78;86.06
3780;BME280;1905;52.482;9.802;2022-11-22T04:21:20;99146.13;;;1.79;87.33
3780;BME280;1905;52.482;9.802;2022-11-22T04:24:03;99146.19;;;1.78;87.81
3780;BME280;1905;52.482;9.802;2022-11-22T04:26:50;99141.75;;;1.82;87.76
3780;BME280;1905;52.482;9.802;2022-11-22T04:29:18;99141.84;;;1.78;86.85
3780;BME280;1905;52.482;9.802;2022-11-22T04:31:47;99144.25;;;1.85;88.28
3780;BME280;1905;52.482;9.802;2022-11-22T04:34:33;99146.72;;;1.88;88.28
3780;BME280;1905;52.482;9.802;2022-11-22T04:37:01;99144.34;;;1.82;87.03
3780;BME280;1905;52.482;9.802;2022-11-22T04:39:29;99153.91;;;1.79;88.19
3780;BME280;1905;52.482;9.802;2022-11-22T04:41:59;99148.69;;;1.81;87.52
3780;BME280;1905;52.482;9.802;2022-11-22T04:44:44;99145.81;;;1.89;87.58
3780;BME280;1905;52.482;9.802;2022-11-22T04:47:12;99150.34;;;1.84;88.37
3780;BME280;1905;52.482;9.802;2022-11-22T04:50:04;99150.25;;;1.87;87.76
3780;BME280;1905;52.482;9.802;2022-11-22T04:52:53;99151.91;;;1.88;88.86
3780;BME280;1905;52.482;9.802;2022-11-22T04:55:19;99148.53;;;1.86;87.64
3780;BME280;1905;52.482;9.802;2022-11-22T04:57:48;99151.91;;;1.88;88.05
3780;BME280;1905;52.482;9.802;2022-11-22T05:00:24;99157.13;;;1.88;87.90
3780;BME280;1905;52.482;9.802;2022-11-22T05:02:52;99159.69;;;1.89;87.52
3780;BME280;1905;52.482;9.802;2022-11-22T05:05:20;99152.56;;;1.94;87.81
3780;BME280;1905;52.482;9.802;2022-11-22T05:07:48;99156.19;;;1.90;88.07
3780;BME280;1905;52.482;9.802;2022-11-22T05:10:16;99152.56;;;1.94;88.77
3780;BME280;1905;52.482;9.802;2022-11-22T05:12:55;99156.94;;;1.94;89.14
3780;BME280;1905;52.482;9.802;2022-11-22T05:15:22;99151.00;;;1.90;88.68
3780;BME280;1905;52.482;9.802;2022-11-22T05:17:50;99154.28;;;1.95;88.01
3780;BME280;1905;52.482;9.802;2022-11-22T05:20:18;99164.72;;;1.94;87.17
3780;BME280;1905;52.482;9.802;2022-11-22T05:22:45;99157.78;;;1.94;87.35
3780;BME280;1905;52.482;9.802;2022-11-22T05:25:33;99158.63;;;1.95;88.33
3780;BME280;1905;52.482;9.802;2022-11-22T05:28:02;99162.78;;;2.00;87.70
3780;BME280;1905;52.482;9.802;2022-11-22T05:30:30;99161.19;;;1.96;88.34
3780;BME280;1905;52.482;9.802;2022-11-22T05:32:58;99163.84;;;1.95;88.22
3780;BME280;1905;52.482;9.802;2022-11-22T05:35:26;99162.78;;;2.00;88.06
3780;BME280;1905;52.482;9.802;2022-11-22T05:37:54;99167.25;;;1.97;87.47
3780;BME280;1905;52.482;9.802;2022-11-22T05:40:22;99166.28;;;1.99;88.59
3780;BME280;1905;52.482;9.802;2022-11-22T05:42:50;99165.28;;;2.03;88.21
3780;BME280;1905;52.482;9.802;2022-11-22T05:45:19;99164.47;;;2.01;87.46
3780;BME280;1905;52.482;9.802;2022-11-22T05:47:47;99168.03;;;1.99;87.94
3780;BME280;1905;52.482;9.802;2022-11-22T05:50:15;99162.72;;;2.02;86.53
3780;BME280;1905;52.482;9.802;2022-11-22T05:52:52;99162.69;;;2.03;87.47
3780;BME280;1905;52.482;9.802;2022-11-22T05:55:20;99160.94;;;2.04;86.93
3780;BME280;1905;52.482;9.802;2022-11-22T05:57:48;99161.53;;;2.12;88.42
3780;BME280;1905;52.482;9.802;2022-11-22T06:00:16;99165.13;;;2.08;88.61
3780;BME280;1905;52.482;9.802;2022-11-22T06:02:45;99166.94;;;2.06;87.75
3780;BME280;1905;52.482;9.802;2022-11-22T06:05:13;99167.78;;;2.06;87.70
3780;BME280;1905;52.482;9.802;2022-11-22T06:07:41;99166.94;;;2.06;87.98
3780;BME280;1905;52.482;9.802;2022-11-22T06:10:09;99173.81;;;2.07;86.84
3780;BME280;1905;52.482;9.802;2022-11-22T06:12:37;99173.03;;;2.05;86.91
3780;BME280;1905;52.482;9.802;2022-11-22T06:15:06;99166.78;;;2.10;87.67
3780;BME280;1905;52.482;9.802;2022-11-22T06:17:33;99172.94;;;2.08;87.01
3780;BME280;1905;52.482;9.802;2022-11-22T06:20:03;99168.41;;;2.13;87.28
3780;BME280;1905;52.482;9.802;2022-11-22T06:22:32;99170.22;;;2.11;86.79
3780;BME280;1905;52.482;9.802;2022-11-22T06:25:00;99172.94;;;2.08;87.05
3780;BME280;1905;52.482;9.802;2022-11-22T06:27:27;99174.59;;;2.10;86.90
3780;BME280;1905;52.482;9.802;2022-11-22T06:29:55;99179.84;;;2.09;86.70
3780;BME280;1905;52.482;9.802;2022-11-22T06:32:22;99180.66;;;2.11;86.54
3780;BME280;1905;52.482;9.802;2022-11-22T06:34:50;99187.44;;;2.15;87.96
3780;BME280;1905;52.482;9.802;2022-11-22T06:37:19;99185.59;;;2.18;87.20
3780;BME280;1905;52.482;9.802;2022-11-22T06:39:47;99184.09;;;2.11;86.22
3780;BME280;1905;52.482;9.802;2022-11-22T06:42:15;99180.53;;;2.14;87.48
3780;BME280;1905;52.482;9.802;2022-11-22T06:44:43;99186.72;;;2.11;86.99
3780;BME280;1905;52.482;9.802;2022-11-22T06:47:11;99181.34;;;2.16;86.33
3780;BME280;1905;52.482;9.802;2022-11-22T06:49:38;99183.84;;;2.19;88.07
3780;BME280;1905;52.482;9.802;2022-11-22T06:52:06;99188.19;;;2.18;86.77
3780;BME280;1905;52.482;9.802;2022-11-22T06:54:35;99183.78;;;2.20;86.85
3780;BME280;1905;52.482;9.802;2022-11-22T06:57:03;99189.91;;;2.19;86.53
3780;BME280;1905;52.482;9.802;2022-11-22T06:59:30;99189.91;;;2.19;86.38
3780;BME280;1905;52.482;9.802;2022-11-22T07:01:58;99182.13;;;2.18;86.07
3780;BME280;1905;52.482;9.802;2022-11-22T07:04:32;99195.81;;;2.24;87.40
3780;BME280;1905;52.482;9.802;2022-11-22T07:06:59;99195.09;;;2.19;87.68
3780;BME280;1905;52.482;9.802;2022-11-22T07:09:27;99196.91;;;2.17;88.04
3780;BME280;1905;52.482;9.802;2022-11-22T07:11:56;99195.03;;;2.21;89.17
3780;BME280;1905;52.482;9.802;2022-11-22T07:14:24;99198.50;;;2.21;87.70
3780;BME280;1905;52.482;9.802;2022-11-22T07:16:52;99202.75;;;2.24;88.39
3780;BME280;1905;52.482;9.802;2022-11-22T07:19:19;99209.78;;;2.22;87.50
3780;BME280;1905;52.482;9.802;2022-11-22T07:21:47;99214.03;;;2.24;88.61
3780;BME280;1905;52.482;9.802;2022-11-22T07:24:16;99223.50;;;2.27;87.95
3780;BME280;1905;52.482;9.802;2022-11-22T07:26:43;99215.84;;;2.22;88.36
3780;BME280;1905;52.482;9.802;2022-11-22T07:29:12;99216.56;;;2.26;87.53
3780;BME280;1905;52.482;9.802;2022-11-22T07:31:43;99233.91;;;2.27;88.66
3780;BME280;1905;52.482;9.802;2022-11-22T07:34:11;99231.22;;;2.28;86.41
3780;BME280;1905;52.482;9.802;2022-11-22T07:36:41;99243.34;;;2.31;87.78
3780;BME280;1905;52.482;9.802;2022-11-22T07:39:11;99244.22;;;2.30;87.68
3780;BME280;1905;52.482;9.802;2022-11-22T07:41:39;99243.34;;;2.31;87.64
3780;BME280;1905;52.482;9.802;2022-11-22T07:44:22;99239.63;;;2.36;88.64
3780;BME280;1905;52.482;9.802;2022-11-22T07:46:50;99247.69;;;2.30;87.85
3780;BME280;1905;52.482;9.802;2022-11-22T07:49:18;99240.72;;;2.31;87.60
3780;BME280;1905;52.482;9.802;2022-11-22T07:51:45;99250.13;;;2.35;87.83
3780;BME280;1905;52.482;9.802;2022-11-22T07:54:13;99259.66;;;2.36;88.19
3780;BME280;1905;52.482;9.802;2022-11-22T07:56:40;99252.53;;;2.41;87.63
3780;BME280;1905;52.482;9.802;2022-11-22T07:59:08;99256.88;;;2.40;88.25
3780;BME280;1905;52.482;9.802;2022-11-22T08:01:38;99254.22;;;2.42;87.92
3780;BME280;1905;52.482;9.802;2022-11-22T08:04:05;99248.78;;;2.48;88.39
3780;BME280;1905;52.482;9.802;2022-11-22T08:06:33;99245.31;;;2.49;88.02
3780;BME280;1905;52.482;9.802;2022-11-22T08:09:00;99252.31;;;2.47;87.77
3780;BME280;1905;52.482;9.802;2022-11-22T08:11:28;99254.09;;;2.45;88.35
3780;BME280;1905;52.482;9.802;2022-11-22T08:13:56;99253.13;;;2.49;87.36
3780;BME280;1905;52.482;9.802;2022-11-22T08:16:23;99249.59;;;2.50;88.57
3780;BME280;1905;52.482;9.802;2022-11-22T08:18:52;99249.50;;;2.53;88.20
3780;BME280;1905;52.482;9.802;2022-11-22T08:21:20;99253.69;;;2.57;88.90
3780;BME280;1905;52.482;9.802;2022-11-22T08:23:47;99261.53;;;2.57;88.66
3780;BME280;1905;52.482;9.802;2022-11-22T08:26:16;99266.63;;;2.60;88.20
3780;BME280;1905;52.482;9.802;2022-11-22T08:28:46;99270.03;;;2.62;88.74
3780;BME280;1905;52.482;9.802;2022-11-22T08:31:15;99274.25;;;2.66;88.94
3780;BME280;1905;52.482;9.802;2022-11-22T08:33:44;99275.94;;;2.67;88.65
3780;BME280;1905;52.482;9.802;2022-11-22T08:36:13;99283.56;;;2.72;87.75
3780;BME280;1905;52.482;9.802;2022-11-22T08:38:41;99292.22;;;2.74;88.31
3780;BME280;1905;52.482;9.802;2022-11-22T08:41:09;99285.28;;;2.73;88.35
3780;BME280;1905;52.482;9.802;2022-11-22T08:43:37;99289.44;;;2.78;89.11
3780;BME280;1905;52.482;9.802;2022-11-22T08:46:05;99282.31;;;2.83;88.67
3780;BME280;1905;52.482;9.802;2022-11-22T08:48:34;99277.09;;;2.83;89.15
3780;BME280;1905;52.482;9.802;2022-11-22T08:51:04;99278.69;;;2.87;89.00
3780;BME280;1905;52.482;9.802;2022-11-22T08:53:36;99282.19;;;2.86;89.27
3780;BME280;1905;52.482;9.802;2022-11-22T08:56:05;99278.59;;;2.90;87.99
3780;BME280;1905;52.482;9.802;2022-11-22T08:58:35;99289.91;;;2.89;88.18
3780;BME280;1905;52.482;9.802;2022-11-22T09:01:04;99288.91;;;2.93;89.30
3780;BME280;1905;52.482;9.802;2022-11-22T09:03:33;99288.06;;;2.93;87.38
3780;BME280;1905;52.482;9.802;2022-11-22T09:06:01;99286.19;;;2.96;88.69
3780;BME280;1905;52.482;9.802;2022-11-22T09:08:51;99299.00;;;3.03;89.47
3780;BME280;1905;52.482;9.802;2022-11-22T09:11:39;99287.72;;;3.02;88.39
3780;BME280;1905;52.482;9.802;2022-11-22T09:14:06;99301.50;;;3.06;88.83
3780;BME280;1905;52.482;9.802;2022-11-22T09:16:34;99299.88;;;3.03;88.80
3780;BME280;1905;52.482;9.802;2022-11-22T09:19:02;99309.22;;;3.09;87.76
3780;BME280;1905;52.482;9.802;2022-11-22T09:21:29;99311.66;;;3.13;88.21
3780;BME280;1905;52.482;9.802;2022-11-22T09:23:58;99323.69;;;3.17;89.90
3780;BME280;1905;52.482;9.802;2022-11-22T09:26:26;99322.63;;;3.23;89.59
3780;BME280;1905;52.482;9.802;2022-11-22T09:28:55;99318.19;;;3.25;89.56
3780;BME280;1905;52.482;9.802;2022-11-22T09:31:23;99316.34;;;3.28;89.12
3780;BME280;1905;52.482;9.802;2022-11-22T09:33:51;99323.13;;;3.32;88.92
3780;BME280;1905;52.482;9.802;2022-11-22T09:36:19;99320.59;;;3.31;89.54
3780;BME280;1905;52.482;9.802;2022-11-22T09:38:48;99324.63;;;3.39;89.78
3780;BME280;1905;52.482;9.802;2022-11-22T09:41:38;99324.56;;;3.41;87.77
3780;BME280;1905;52.482;9.802;2022-11-22T09:44:16;99332.16;;;3.47;89.12
3780;BME280;1905;52.482;9.802;2022-11-22T09:46:50;99336.44;;;3.49;88.68
3780;BME280;1905;52.482;9.802;2022-11-22T09:49:31;99330.34;;;3.49;88.95
3780;BME280;1905;52.482;9.802;2022-11-22T09:52:07;99331.84;;;3.56;88.68
3780;BME280;1905;52.482;9.802;2022-11-22T09:54:40;99335.25;;;3.58;89.34
3780;BME280;1905;52.482;9.802;2022-11-22T09:57:15;99328.31;;;3.57;89.78
3780;BME280;1905;52.482;9.802;2022-11-22T09:59:46;99324.50;;;3.66;88.85
3780;BME280;1905;52.482;9.802;2022-11-22T10:02:18;99331.38;;;3.68;89.28
3780;BME280;1905;52.482;9.802;2022-11-22T10:04:53;99321.03;;;3.65;87.77
3780;BME280;1905;52.482;9.802;2022-11-22T10:07:27;99328.66;;;3.71;89.09
3780;BME280;1905;52.482;9.802;2022-11-22T10:10:01;99329.31;;;3.76;87.52
3780;BME280;1905;52.482;9.802;2022-11-22T10:12:36;99318.75;;;3.79;88.18
3780;BME280;1905;52.482;9.802;2022-11-22T10:15:13;99322.94;;;3.83;89.57
3780;BME280;1905;52.482;9.802;2022-11-22T10:17:52;99316.63;;;3.89;90.37
3780;BME280;1905;52.482;9.802;2022-11-22T10:20:21;99320.72;;;3.96;88.89
3780;BME280;1905;52.482;9.802;2022-11-22T10:22:50;99318.78;;;4.01;89.00
3780;BME280;1905;52.482;9.802;2022-11-22T10:25:19;99319.53;;;4.04;88.11
3780;BME280;1905;52.482;9.802;2022-11-22T10:27:52;99322.56;;;4.15;89.03
3780;BME280;1905;52.482;9.802;2022-11-22T10:30:28;99324.00;;;4.22;89.12
3780;BME280;1905;52.482;9.802;2022-11-22T10:33:06;99314.88;;;4.33;89.40
3780;BME280;1905;52.482;9.802;2022-11-22T10:35:49;99318.16;;;4.38;91.54
3780;BME280;1905;52.482;9.802;2022-11-22T10:38:36;99312.69;;;4.44;89.48
3780;BME280;1905;52.482;9.802;2022-11-22T10:41:14;99301.13;;;4.49;90.99
3780;BME280;1905;52.482;9.802;2022-11-22T10:43:52;99311.25;;;4.57;91.03
3780;BME280;1905;52.482;9.802;2022-11-22T10:46:30;99313.50;;;4.66;91.82
3780;BME280;1905;52.482;9.802;2022-11-22T10:49:11;99320.31;;;4.70;90.84
3780;BME280;1905;52.482;9.802;2022-11-22T10:51:49;99311.53;;;4.71;90.88
3780;BME280;1905;52.482;9.802;2022-11-22T10:54:22;99305.16;;;4.78;90.89
3780;BME280;1905;52.482;9.802;2022-11-22T10:56:57;99299.84;;;4.79;90.01
3780;BME280;1905;52.482;9.802;2022-11-22T10:59:45;99302.25;;;4.84;90.60
3780;BME280;1905;52.482;9.802;2022-11-22T11:02:32;99300.97;;;4.94;92.05
3780;BME280;1905;52.482;9.802;2022-11-22T11:05:05;99284.03;;;5.03;91.94
3780;BME280;1905;52.482;9.802;2022-11-22T11:07:46;99276.22;;;5.01;92.25
3780;BME280;1905;52.482;9.802;2022-11-22T11:10:16;99281.97;;;5.09;91.94
3780;BME280;1905;52.482;9.802;2022-11-22T11:13:01;99286.19;;;5.13;91.61
3780;BME280;1905;52.482;9.802;2022-11-22T11:15:34;99283.25;;;5.19;91.42
3780;BME280;1905;52.482;9.802;2022-11-22T11:18:10;99286.56;;;5.24;91.63
3780;BME280;1905;52.482;9.802;2022-11-22T11:20:41;99288.88;;;5.30;90.88
3780;BME280;1905;52.482;9.802;2022-11-22T11:23:13;99287.81;;;5.34;91.06
3780;BME280;1905;52.482;9.802;2022-11-22T11:25:43;99277.91;;;5.41;91.23
3780;BME280;1905;52.482;9.802;2022-11-22T11:28:16;99278.78;;;5.41;91.16
3780;BME280;1905;52.482;9.802;2022-11-22T11:30:47;99277.72;;;5.46;91.64
3780;BME280;1905;52.482;9.802;2022-11-22T11:33:25;99277.44;;;5.52;91.36
3780;BME280;1905;52.482;9.802;2022-11-22T11:36:02;99272.13;;;5.53;90.16
3780;BME280;1905;52.482;9.802;2022-11-22T11:38:32;99276.25;;;5.59;90.63
3780;BME280;1905;52.482;9.802;2022-11-22T11:41:30;99267.31;;;5.63;90.20
3780;BME280;1905;52.482;9.802;2022-11-22T11:44:25;99276.72;;;5.67;90.53
3780;BME280;1905;52.482;9.802;2022-11-22T11:46:55;99267.03;;;5.69;90.39
3780;BME280;1905;52.482;9.802;2022-11-22T11:49:24;99272.25;;;5.69;90.00
3780;BME280;1905;52.482;9.802;2022-11-22T11:51:54;99274.59;;;5.75;89.44
3780;BME280;1905;52.482;9.802;2022-11-22T11:54:25;99266.59;;;5.78;89.79
3780;BME280;1905;52.482;9.802;2022-11-22T11:56:56;99262.13;;;5.80;90.15
3780;BME280;1905;52.482;9.802;2022-11-22T11:59:41;99264.63;;;5.83;90.07
3780;BME280;1905;52.482;9.802;2022-11-22T12:02:13;99259.38;;;5.83;89.84
3780;BME280;1905;52.482;9.802;2022-11-22T12:04:47;99263.66;;;5.85;89.52
3780;BME280;1905;52.482;9.802;2022-11-22T12:07:18;99270.50;;;5.88;89.56
3780;BME280;1905;52.482;9.802;2022-11-22T12:09:48;99275.53;;;5.92;89.78
3780;BME280;1905;52.482;9.802;2022-11-22T12:12:30;99283.19;;;5.97;90.01
3780;BME280;1905;52.482;9.802;2022-11-22T12:15:04;99289.97;;;6.01;90.19
3780;BME280;1905;52.482;9.802;2022-11-22T12:17:45;99286.56;;;5.99;89.48
3780;BME280;1905;52.482;9.802;2022-11-22T12:20:20;99294.38;;;6.01;89.54
3780;BME280;1905;52.482;9.802;2022-11-22T12:22:57;99285.44;;;6.05;89.05
3780;BME280;1905;52.482;9.802;2022-11-22T12:25:30;99293.22;;;6.06;89.65
3780;BME280;1905;52.482;9.802;2022-11-22T12:28:06;99283.53;;;6.08;89.62
3780;BME280;1905;52.482;9.802;2022-11-22T12:30:38;99292.16;;;6.10;88.96
3780;BME280;1905;52.482;9.802;2022-11-22T12:33:16;99290.25;;;6.14;89.51
3780;BME280;1905;52.482;9.802;2022-11-22T12:35:46;99296.34;;;6.14;89.38
3780;BME280;1905;52.482;9.802;2022-11-22T12:38:17;99293.63;;;6.16;89.62
3780;BME280;1905;52.482;9.802;2022-11-22T12:40:52;99297.88;;;6.18;89.30
3780;BME280;1905;52.482;9.802;2022-11-22T12:43:22;99302.97;;;6.21;89.19
3780;BME280;1905;52.482;9.802;2022-11-22T12:45:53;99302.69;;;6.27;88.91
3780;BME280;1905;52.482;9.802;2022-11-22T12:48:28;99293.13;;;6.26;89.08
3780;BME280;1905;52.482;9.802;2022-11-22T12:51:02;99290.34;;;6.29;88.56
3780;BME280;1905;52.482;9.802;2022-11-22T12:53:34;99288.50;;;6.31;88.87
3780;BME280;1905;52.482;9.802;2022-11-22T12:56:14;99288.34;;;6.34;89.12
3780;BME280;1905;52.482;9.802;2022-11-22T12:58:50;99283.03;;;6.36;88.99
3780;BME280;1905;52.482;9.802;2022-11-22T13:01:24;99280.25;;;6.39;89.03
3780;BME280;1905;52.482;9.802;2022-11-22T13:03:56;99281.09;;;6.39;89.11
3780;BME280;1905;52.482;9.802;2022-11-22T13:06:31;99284.66;;;6.38;88.16
3780;BME280;1905;52.482;9.802;2022-11-22T13:09:03;99284.47;;;6.41;88.73
3780;BME280;1905;52.482;9.802;2022-11-22T13:11:36;99290.53;;;6.43;88.69
3780;BME280;1905;52.482;9.802;2022-11-22T13:14:11;99293.06;;;6.45;88.79
3780;BME280;1905;52.482;9.802;2022-11-22T13:16:54;99285.97;;;6.47;88.43
3780;BME280;1905;52.482;9.802;2022-11-22T13:19:25;99281.56;;;6.47;89.10
3780;BME280;1905;52.482;9.802;2022-11-22T13:22:07;99280.50;;;6.51;88.55
3780;BME280;1905;52.482;9.802;2022-11-22T13:24:48;99270.94;;;6.50;88.73
3780;BME280;1905;52.482;9.802;2022-11-22T13:27:23;99270.94;;;6.50;88.25
3780;BME280;1905;52.482;9.802;2022-11-22T13:29:54;99269.06;;;6.52;88.09
3780;BME280;1905;52.482;9.802;2022-11-22T13:32:29;99264.63;;;6.54;88.54
3780;BME280;1905;52.482;9.802;2022-11-22T13:35:04;99260.19;;;6.55;88.01
3780;BME280;1905;52.482;9.802;2022-11-22T13:37:36;99260.19;;;6.55;88.15
3780;BME280;1905;52.482;9.802;2022-11-22T13:40:24;99256.59;;;6.57;88.74
3780;BME280;1905;52.482;9.802;2022-11-22T13:43:30;99261.84;;;6.57;88.49
3780;BME280;1905;52.482;9.802;2022-11-22T13:45:59;99263.63;;;6.57;88.33
3780;BME280;1905;52.482;9.802;2022-11-22T13:52:00;99258.38;;;6.57;87.85
3780;BME280;1905;52.482;9.802;2022-11-22T13:55:09;99252.28;;;6.56;87.91
3780;BME280;1905;52.482;9.802;2022-11-22T13:57:48;99255.91;;;6.54;87.96